首页
METAR-TAF:

METAR-TAF

机场 :

Churchill, 曼尼托巴, 加拿大

纬度: 58-44N, 经度: 094-04W, 海拔: 28米

当前天气观测

该预报发布于49分钟前的23:00 UTC
风速3节,风向东转东南
温度 -18°C
湿度 92%
气压 1008 hPa
能見度: 19.3公里
阴天层高于900英尺
小雪

METAR: CYYQ 182300Z 12003KT 12SM -SN OVC009 M18/M19 A2978 RMK ST8 SLP089

时间: 17:49 (23:49 UTC)

预报

该预报发布于45分钟前的23:04 UTC
预报有效从18日的 23点(UTC)到 19日的 18点(UTC)
风速3节,风向多变
能見度: 8.0公里
阴天层高于900英尺
小雪
短暂存在
从 18日的 23点(UTC)到 19日的 15点(UTC)
能見度: 10公里
阴天层高于1200英尺
小雪
成为
从 19日的 06点(UTC)到 19日的 08点(UTC)
风速8节,风向
从 19日的 1500点(UTC)
风速10节,风向
能見度: 10公里
多云层高于1500英尺
阴天层高于3000英尺
小雪

TAF: CYYQ 182304Z 1823/1918 VRB03KT 5SM -SN OVC009 TEMPO 1823/1915 P6SM -SN OVC012 BECMG 1906/1908 09008KT FM191500 08010KT P6SM -SN BKN015 OVC030 RMK NXT FCST BY 190000Z

超过4000个机场的气象观测和天气预报(METAR&TAF报告)。

可查询的气象台以黄色和红色小点在地图上表示。

将鼠标移到小点上方,可查看气象台名称。

然后点击查看天气观测和预报。

如需切换地图:点击带黑十字的绿色按钮放大地图;点击带横线的绿色按钮缩小地图;或者点击绿色箭头查看邻近地区的地图。


METAR-TAF: